Time;durP1;ratioP1;P1;durP2;ratioP2;P2;SDS_P1;SDS_P2;PMS_P1;PMS_P2;Temp;Humidity;BMP_temperature;BMP_pressure;BME280_temperature;BME280_humidity;BME280_pressure;Samples;Min_cycle;Max_cycle;Signal;HPM_P1;HPM_P2
2022/10/28 00:00:33;;;;;;;27.88;18.00;;;;;;;;;;5018461;28;20459;-78
2022/10/28 00:03:00;;;;;;;34.67;19.58;;;;;;;;;;5017827;28;20036;-76
2022/10/28 00:05:27;;;;;;;32.47;18.88;;;;;;;;;;5017925;28;20412;-78
2022/10/28 00:07:53;;;;;;;28.40;19.20;;;;;;;;;;5017988;28;20029;-77
2022/10/28 00:10:19;;;;;;;32.70;19.77;;;;;;;;;;5035754;28;20032;-77
2022/10/28 00:12:44;;;;;;;30.15;17.83;;;;;;;;;;5018010;28;20029;-76
2022/10/28 00:15:10;;;;;;;34.15;18.77;;;;;;;;;;5017636;28;20025;-75
2022/10/28 00:17:35;;;;;;;34.00;19.17;;;;;;;;;;5018267;28;20033;-77
2022/10/28 00:20:01;;;;;;;30.48;18.92;;;;;;;;;;5035682;28;20470;-76
2022/10/28 00:22:27;;;;;;;28.17;18.33;;;;;;;;;;5017457;28;20127;-75
2022/10/28 00:24:52;;;;;;;36.05;19.48;;;;;;;;;;5019785;28;20047;-77
2022/10/28 00:27:17;;;;;;;30.20;18.58;;;;;;;;;;5038311;28;20017;-76
2022/10/28 00:29:43;;;;;;;33.35;18.75;;;;;;;;;;5037237;28;20025;-76
2022/10/28 00:32:08;;;;;;;36.70;18.73;;;;;;;;;;5056033;28;20100;-76
2022/10/28 00:34:34;;;;;;;30.38;17.35;;;;;;;;;;5056577;28;20025;-76
2022/10/28 00:36:59;;;;;;;31.30;18.33;;;;;;;;;;5056139;28;20077;-76
2022/10/28 00:39:26;;;;;;;32.35;17.80;;;;;;;;;;5038238;28;20094;-76
2022/10/28 00:42:02;;;;;;;29.60;17.40;;;;;;;;;;5037202;28;20028;-77
2022/10/28 00:44:55;;;;;;;30.20;16.48;;;;;;;;;;5036907;28;20048;-77
2022/10/28 00:47:54;;;;;;;32.50;17.27;;;;;;;;;;5036865;28;20059;-76
2022/10/28 00:50:42;;;;;;;27.50;16.60;;;;;;;;;;5055041;28;20460;-77
2022/10/28 00:53:28;;;;;;;31.52;17.75;;;;;;;;;;5037245;28;20025;-79
2022/10/28 00:55:55;;;;;;;28.85;17.17;;;;;;;;;;5037208;28;20078;-77
2022/10/28 00:58:24;;;;;;;30.13;17.83;;;;;;;;;;5037701;28;20119;-77
2022/10/28 01:00:50;;;;;;;32.78;17.27;;;;;;;;;;5055350;28;20025;-77
2022/10/28 01:03:15;;;;;;;31.20;18.90;;;;;;;;;;5054726;28;20090;-75
2022/10/28 01:05:45;;;;;;;32.30;18.20;;;;;;;;;;5056035;28;20418;-77
2022/10/28 01:08:10;;;;;;;26.90;17.05;;;;;;;;;;5055249;28;20021;-78
2022/10/28 01:11:08;;;;;;;31.65;17.25;;;;;;;;;;5054413;28;20031;-74
2022/10/28 01:13:48;;;;;;;32.70;20.20;;;;;;;;;;5033667;28;20037;-78
2022/10/28 01:16:39;;;;;;;33.25;18.02;;;;;;;;;;5037335;28;20032;-76
2022/10/28 01:19:38;;;;;;;28.00;17.63;;;;;;;;;;5036106;28;20048;-77
2022/10/28 01:22:22;;;;;;;30.60;17.33;;;;;;;;;;5054163;28;20061;-77
2022/10/28 01:24:48;;;;;;;28.70;17.67;;;;;;;;;;5035989;28;20025;-77
2022/10/28 01:27:54;;;;;;;29.88;18.75;;;;;;;;;;5036500;28;20072;-76
2022/10/28 01:30:25;;;;;;;43.60;23.98;;;;;;;;;;5025920;28;20041;-78
2022/10/28 01:33:30;;;;;;;31.58;19.38;;;;;;;;;;5036487;28;20392;-75
2022/10/28 01:36:11;;;;;;;29.55;17.63;;;;;;;;;;5053811;28;20459;-77
2022/10/28 01:38:50;;;;;;;34.10;19.10;;;;;;;;;;5053214;28;20033;-77
2022/10/28 01:41:32;;;;;;;30.95;18.48;;;;;;;;;;5053407;28;20017;-76
2022/10/28 01:44:13;;;;;;;29.08;17.30;;;;;;;;;;5054028;28;20488;-77
2022/10/28 01:46:54;;;;;;;30.23;18.52;;;;;;;;;;5035697;28;20052;-77
2022/10/28 01:49:33;;;;;;;32.00;18.08;;;;;;;;;;5036009;28;20472;-79
2022/10/28 01:52:04;;;;;;;32.55;19.00;;;;;;;;;;5036046;28;20548;-78
2022/10/28 01:54:32;;;;;;;31.58;19.20;;;;;;;;;;5036414;28;20070;-78
2022/10/28 01:57:01;;;;;;;31.42;17.70;;;;;;;;;;5035889;28;20119;-77
2022/10/28 01:59:28;;;;;;;29.65;17.98;;;;;;;;;;5035727;28;20024;-77
2022/10/28 02:01:55;;;;;;;31.88;18.65;;;;;;;;;;5035269;28;20029;-77
2022/10/28 02:04:20;;;;;;;34.63;18.95;;;;;;;;;;5036078;28;20051;-76
2022/10/28 02:06:52;;;;;;;38.03;18.63;;;;;;;;;;5053119;28;20052;-77
2022/10/28 02:09:42;;;;;;;28.25;17.90;;;;;;;;;;5053748;28;20024;-76
2022/10/28 02:12:19;;;;;;;30.50;18.75;;;;;;;;;;5052895;28;20395;-76
2022/10/28 02:15:27;;;;;;;34.08;18.63;;;;;;;;;;5052906;28;20107;-77
2022/10/28 02:17:55;;;;;;;34.67;19.80;;;;;;;;;;5053292;28;20029;-74
2022/10/28 02:20:40;;;;;;;39.40;21.95;;;;;;;;;;5035602;28;20040;-78
2022/10/28 02:23:45;;;;;;;37.83;22.27;;;;;;;;;;5034839;28;20039;-76
2022/10/28 02:26:19;;;;;;;36.35;19.35;;;;;;;;;;5011042;28;20248;-76
2022/10/28 02:28:59;;;;;;;31.92;19.20;;;;;;;;;;5015523;28;20406;-77
2022/10/28 02:31:36;;;;;;;33.28;18.42;;;;;;;;;;5032774;28;20040;-77
2022/10/28 02:34:17;;;;;;;28.70;17.15;;;;;;;;;;5032927;28;20029;-77
2022/10/28 02:36:48;;;;;;;30.20;17.58;;;;;;;;;;5015376;28;20544;-77
2022/10/28 02:39:16;;;;;;;27.23;16.88;;;;;;;;;;5032945;28;20037;-78
2022/10/28 02:41:45;;;;;;;24.38;15.55;;;;;;;;;;5033372;28;20469;-75
2022/10/28 02:44:16;;;;;;;24.20;15.50;;;;;;;;;;5014764;28;20086;-75
2022/10/28 02:46:45;;;;;;;28.58;15.45;;;;;;;;;;5015768;28;20017;-75
2022/10/28 02:49:13;;;;;;;26.58;15.30;;;;;;;;;;5015846;28;20107;-79
2022/10/28 02:51:45;;;;;;;29.13;14.77;;;;;;;;;;5014708;28;20489;-77
2022/10/28 02:54:16;;;;;;;26.08;15.48;;;;;;;;;;5032785;28;20029;-76
2022/10/28 02:56:51;;;;;;;23.42;14.82;;;;;;;;;;5015157;28;20108;-76
2022/10/28 02:59:18;;;;;;;26.83;14.98;;;;;;;;;;5032959;28;20036;-77
2022/10/28 03:01:44;;;;;;;23.48;13.73;;;;;;;;;;5033148;28;20021;-76
2022/10/28 03:04:09;;;;;;;27.35;14.45;;;;;;;;;;5015963;28;20430;-74
2022/10/28 03:06:35;;;;;;;29.35;15.80;;;;;;;;;;5013965;28;20021;-76
2022/10/28 03:09:00;;;;;;;24.27;14.27;;;;;;;;;;5032998;28;20026;-77
2022/10/28 03:11:26;;;;;;;22.77;13.63;;;;;;;;;;5032395;28;20129;-77
2022/10/28 03:13:51;;;;;;;27.00;14.20;;;;;;;;;;5014766;28;20559;-76
2022/10/28 03:16:17;;;;;;;22.30;13.40;;;;;;;;;;5032388;28;20032;-76
2022/10/28 03:18:43;;;;;;;23.45;14.15;;;;;;;;;;5031959;28;20549;-77
2022/10/28 03:21:09;;;;;;;22.65;14.45;;;;;;;;;;5014306;28;20425;-78
2022/10/28 03:23:34;;;;;;;26.88;14.90;;;;;;;;;;5014647;28;20064;-77
2022/10/28 03:26:00;;;;;;;22.50;14.05;;;;;;;;;;5025370;28;20021;-77
2022/10/28 03:28:25;;;;;;;22.88;14.10;;;;;;;;;;5053319;28;20021;-77
2022/10/28 03:30:51;;;;;;;23.17;13.73;;;;;;;;;;5034400;28;20732;-75
2022/10/28 03:33:16;;;;;;;24.30;13.98;;;;;;;;;;5052054;28;20444;-77
2022/10/28 03:35:42;;;;;;;26.38;14.68;;;;;;;;;;5052272;28;20082;-78
2022/10/28 03:38:07;;;;;;;28.60;14.30;;;;;;;;;;5033764;28;20032;-77
2022/10/28 03:40:33;;;;;;;24.42;13.90;;;;;;;;;;5052258;28;20048;-78
2022/10/28 03:42:59;;;;;;;20.48;13.02;;;;;;;;;;5033461;28;20126;-77
2022/10/28 03:45:24;;;;;;;21.10;13.52;;;;;;;;;;5052077;28;20544;-76
2022/10/28 03:47:50;;;;;;;27.08;13.70;;;;;;;;;;5051404;28;20021;-76
2022/10/28 03:50:16;;;;;;;25.30;12.35;;;;;;;;;;5033941;28;20358;-76
2022/10/28 03:52:43;;;;;;;23.02;13.85;;;;;;;;;;5051566;28;20480;-77
2022/10/28 03:55:09;;;;;;;24.73;13.25;;;;;;;;;;5033531;28;20021;-76
2022/10/28 03:57:34;;;;;;;23.55;13.75;;;;;;;;;;5016610;28;20029;-77
2022/10/28 04:00:00;;;;;;;26.25;13.85;;;;;;;;;;5051748;28;20025;-76
2022/10/28 04:02:25;;;;;;;25.85;14.07;;;;;;;;;;5033769;28;20033;-75
2022/10/28 04:04:51;;;;;;;20.95;12.65;;;;;;;;;;5033241;28;20392;-75
2022/10/28 04:07:17;;;;;;;22.65;13.77;;;;;;;;;;5016763;28;20033;-76
2022/10/28 04:09:42;;;;;;;20.80;13.35;;;;;;;;;;5033794;28;20032;-77
2022/10/28 04:12:09;;;;;;;24.00;12.93;;;;;;;;;;5051987;28;20476;-77
2022/10/28 04:14:34;;;;;;;20.88;12.85;;;;;;;;;;5051799;28;20025;-77
2022/10/28 04:16:59;;;;;;;20.17;13.23;;;;;;;;;;5034306;28;20025;-76
2022/10/28 04:19:25;;;;;;;21.38;12.35;;;;;;;;;;5034440;28;20476;-76
2022/10/28 04:21:50;;;;;;;22.70;12.68;;;;;;;;;;5051442;28;20049;-77
2022/10/28 04:24:16;;;;;;;20.38;11.77;;;;;;;;;;5034179;28;20052;-78
2022/10/28 04:26:41;;;;;;;23.52;13.00;;;;;;;;;;5033306;28;20115;-78
2022/10/28 04:29:07;;;;;;;17.70;12.13;;;;;;;;;;5033897;28;20472;-75
2022/10/28 04:31:32;;;;;;;25.33;13.68;;;;;;;;;;5033470;28;20221;-75
2022/10/28 04:33:58;;;;;;;19.35;12.02;;;;;;;;;;5051516;28;20032;-76
2022/10/28 04:36:23;;;;;;;19.02;12.25;;;;;;;;;;5051123;28;20472;-78
2022/10/28 04:38:50;;;;;;;22.77;12.55;;;;;;;;;;5055152;28;20465;-77
2022/10/28 04:41:16;;;;;;;21.85;12.43;;;;;;;;;;5037237;28;20534;-76
2022/10/28 04:43:42;;;;;;;21.77;12.88;;;;;;;;;;5037518;28;20025;-75
2022/10/28 04:46:07;;;;;;;20.70;12.20;;;;;;;;;;5036920;28;20488;-76
2022/10/28 04:48:33;;;;;;;21.70;13.30;;;;;;;;;;5036453;28;20108;-78
2022/10/28 04:51:00;;;;;;;19.88;13.65;;;;;;;;;;5036457;28;20217;-76
2022/10/28 04:53:26;;;;;;;18.02;11.88;;;;;;;;;;5036760;28;20104;-78
2022/10/28 04:55:56;;;;;;;19.83;12.63;;;;;;;;;;5036831;28;20128;-74
2022/10/28 04:58:22;;;;;;;26.08;13.23;;;;;;;;;;5054908;28;20017;-76
2022/10/28 05:00:48;;;;;;;22.58;13.77;;;;;;;;;;5036789;28;20029;-77
2022/10/28 05:03:13;;;;;;;22.20;12.68;;;;;;;;;;5055048;28;20035;-77
2022/10/28 05:05:39;;;;;;;22.52;12.55;;;;;;;;;;5054979;28;20017;-76
2022/10/28 05:08:05;;;;;;;21.30;12.25;;;;;;;;;;5053831;28;20128;-77
2022/10/28 05:10:31;;;;;;;19.90;13.00;;;;;;;;;;5037283;28;20087;-77
2022/10/28 05:12:57;;;;;;;20.17;13.07;;;;;;;;;;5054291;28;20122;-77
2022/10/28 05:15:25;;;;;;;21.80;12.80;;;;;;;;;;5036730;28;20025;-77
2022/10/28 05:17:51;;;;;;;20.25;12.15;;;;;;;;;;5055092;28;20028;-75
2022/10/28 05:20:17;;;;;;;21.90;13.35;;;;;;;;;;5036837;28;20468;-77
2022/10/28 05:22:51;;;;;;;18.73;11.25;;;;;;;;;;5037057;28;20142;-77
2022/10/28 05:25:17;;;;;;;20.50;11.55;;;;;;;;;;5054738;28;20023;-76
2022/10/28 05:27:50;;;;;;;20.05;12.15;;;;;;;;;;5037371;28;20031;-78
2022/10/28 05:30:16;;;;;;;21.70;12.20;;;;;;;;;;5036759;28;20433;-76
2022/10/28 05:32:41;;;;;;;21.33;13.10;;;;;;;;;;5036410;28;20032;-77
2022/10/28 05:35:08;;;;;;;23.15;12.55;;;;;;;;;;5035957;28;20033;-76
2022/10/28 05:37:33;;;;;;;27.48;13.70;;;;;;;;;;5053878;28;20025;-77
2022/10/28 05:39:59;;;;;;;20.42;12.27;;;;;;;;;;5036415;28;20194;-76
2022/10/28 05:42:24;;;;;;;27.45;13.73;;;;;;;;;;5036049;28;20037;-75
2022/10/28 05:44:50;;;;;;;19.40;11.50;;;;;;;;;;5035747;28;20036;-78
2022/10/28 05:47:15;;;;;;;21.98;13.18;;;;;;;;;;5054029;28;20037;-77
2022/10/28 05:49:41;;;;;;;19.77;12.70;;;;;;;;;;5053827;28;20037;-77
2022/10/28 05:52:06;;;;;;;20.25;12.18;;;;;;;;;;5053839;28;20036;-77
2022/10/28 05:54:32;;;;;;;24.35;13.88;;;;;;;;;;5052995;28;20098;-77
2022/10/28 05:56:57;;;;;;;21.92;12.50;;;;;;;;;;5053915;28;20045;-77
2022/10/28 05:59:23;;;;;;;17.27;10.82;;;;;;;;;;5053650;28;20036;-77
2022/10/28 06:01:48;;;;;;;19.60;11.57;;;;;;;;;;5053388;28;20060;-77
2022/10/28 06:04:14;;;;;;;18.35;10.80;;;;;;;;;;5018494;28;20033;-77
2022/10/28 06:06:39;;;;;;;16.75;10.43;;;;;;;;;;5035443;28;20494;-77
2022/10/28 06:09:05;;;;;;;24.05;11.48;;;;;;;;;;5035598;28;20086;-77
2022/10/28 06:11:30;;;;;;;17.75;9.98;;;;;;;;;;5054370;28;20078;-74
2022/10/28 06:13:56;;;;;;;19.98;10.60;;;;;;;;;;5054538;28;20037;-78
2022/10/28 06:16:21;;;;;;;17.00;10.40;;;;;;;;;;5036156;28;20036;-78
2022/10/28 06:18:47;;;;;;;20.63;11.40;;;;;;;;;;5055033;28;20661;-76
2022/10/28 06:21:13;;;;;;;21.52;11.55;;;;;;;;;;5036675;28;20059;-77
2022/10/28 06:23:38;;;;;;;18.85;11.80;;;;;;;;;;5037458;28;20069;-77
2022/10/28 06:26:04;;;;;;;21.33;11.13;;;;;;;;;;5042032;28;20746;-75
2022/10/28 06:28:30;;;;;;;18.77;10.77;;;;;;;;;;5035318;28;20041;-77
2022/10/28 06:31:03;;;;;;;21.42;11.43;;;;;;;;;;5033909;28;20257;-77
2022/10/28 06:33:32;;;;;;;17.08;10.65;;;;;;;;;;5015894;28;20034;-76
2022/10/28 06:35:58;;;;;;;24.00;11.50;;;;;;;;;;5015092;28;20033;-76
2022/10/28 06:38:25;;;;;;;17.58;11.45;;;;;;;;;;5033672;28;20438;-77
2022/10/28 06:40:51;;;;;;;20.63;10.50;;;;;;;;;;5015567;28;20128;-77
2022/10/28 06:43:16;;;;;;;18.02;11.02;;;;;;;;;;5015699;28;20061;-78
2022/10/28 06:45:42;;;;;;;20.42;11.52;;;;;;;;;;5016036;28;20037;-77
2022/10/28 06:48:09;;;;;;;19.13;12.07;;;;;;;;;;5016545;28;20396;-77
2022/10/28 06:50:35;;;;;;;19.08;11.43;;;;;;;;;;5016373;28;20029;-75
2022/10/28 06:53:01;;;;;;;19.77;12.00;;;;;;;;;;5015712;28;20045;-75
2022/10/28 06:55:27;;;;;;;16.00;10.35;;;;;;;;;;5015362;28;20036;-78
2022/10/28 06:57:57;;;;;;;16.70;10.35;;;;;;;;;;5015839;28;20481;-77
2022/10/28 07:00:23;;;;;;;22.65;12.02;;;;;;;;;;4998213;28;20038;-76
2022/10/28 07:02:51;;;;;;;15.00;10.07;;;;;;;;;;5032691;28;20550;-76
2022/10/28 07:05:17;;;;;;;23.67;10.23;;;;;;;;;;5014887;28;20033;-78
2022/10/28 07:07:43;;;;;;;18.98;10.93;;;;;;;;;;4999546;28;20040;-77
2022/10/28 07:10:09;;;;;;;17.98;11.35;;;;;;;;;;5016165;28;20088;-76
2022/10/28 07:12:34;;;;;;;17.20;10.48;;;;;;;;;;5016786;28;20029;-78
2022/10/28 07:15:00;;;;;;;19.45;11.27;;;;;;;;;;5034145;28;20079;-79
2022/10/28 07:17:25;;;;;;;20.25;11.80;;;;;;;;;;5033982;28;20454;-76
2022/10/28 07:19:51;;;;;;;19.20;11.15;;;;;;;;;;5033132;28;20086;-78
2022/10/28 07:22:16;;;;;;;17.40;12.20;;;;;;;;;;5015297;28;20497;-75
2022/10/28 07:24:42;;;;;;;24.70;12.43;;;;;;;;;;5034336;28;20477;-78
2022/10/28 07:27:08;;;;;;;16.92;10.63;;;;;;;;;;5035034;28;20118;-76
2022/10/28 07:29:34;;;;;;;23.95;11.18;;;;;;;;;;5053145;28;20108;-76
2022/10/28 07:31:59;;;;;;;17.27;11.02;;;;;;;;;;5018994;28;20044;-78
2022/10/28 07:34:25;;;;;;;19.23;11.15;;;;;;;;;;5053315;28;20028;-76
2022/10/28 07:36:52;;;;;;;19.13;11.15;;;;;;;;;;5052912;28;20083;-77
2022/10/28 07:39:18;;;;;;;16.27;11.32;;;;;;;;;;5034459;28;20029;-76
2022/10/28 07:41:44;;;;;;;17.23;10.88;;;;;;;;;;5034809;28;20439;-75
2022/10/28 07:44:10;;;;;;;19.38;11.52;;;;;;;;;;5052637;28;20521;-77
2022/10/28 07:46:35;;;;;;;17.83;10.60;;;;;;;;;;5034751;28;20081;-77
2022/10/28 07:49:01;;;;;;;18.05;10.43;;;;;;;;;;5035346;28;20036;-77
2022/10/28 07:51:27;;;;;;;18.80;11.32;;;;;;;;;;5052867;28;20127;-77
2022/10/28 07:53:54;;;;;;;17.92;11.27;;;;;;;;;;5034610;28;20100;-77
2022/10/28 07:56:20;;;;;;;21.08;11.40;;;;;;;;;;5034652;28;20132;-75
2022/10/28 07:58:45;;;;;;;20.00;11.40;;;;;;;;;;5052193;28;20079;-78
2022/10/28 08:01:13;;;;;;;16.23;11.43;;;;;;;;;;5053740;28;20037;-77
2022/10/28 08:03:39;;;;;;;18.10;10.52;;;;;;;;;;5035623;28;20500;-76
2022/10/28 08:06:11;;;;;;;21.27;12.20;;;;;;;;;;5035449;28;20029;-77
2022/10/28 08:08:38;;;;;;;16.58;10.88;;;;;;;;;;5052831;28;20047;-76
2022/10/28 08:11:15;;;;;;;18.85;11.32;;;;;;;;;;5034980;28;20443;-76
2022/10/28 08:13:41;;;;;;;18.73;11.18;;;;;;;;;;5038174;28;20035;-76
2022/10/28 08:16:07;;;;;;;21.40;11.32;;;;;;;;;;5022900;28;20094;-76
2022/10/28 08:18:34;;;;;;;17.27;11.32;;;;;;;;;;5057266;28;20032;-77
2022/10/28 08:21:01;;;;;;;23.15;12.35;;;;;;;;;;5022535;28;20049;-76
2022/10/28 08:23:27;;;;;;;18.00;11.85;;;;;;;;;;5022555;28;20074;-76
2022/10/28 08:25:55;;;;;;;16.30;10.77;;;;;;;;;;5038231;28;20358;-75
2022/10/28 08:28:21;;;;;;;17.20;10.70;;;;;;;;;;5038610;28;20143;-76
2022/10/28 08:30:47;;;;;;;17.10;10.90;;;;;;;;;;5038870;28;20029;-76
2022/10/28 08:33:13;;;;;;;16.83;11.15;;;;;;;;;;5038665;28;20078;-77
2022/10/28 08:35:39;;;;;;;22.60;11.07;;;;;;;;;;5038568;28;20032;-76
2022/10/28 08:38:06;;;;;;;28.27;11.63;;;;;;;;;;5038383;28;20484;-77
2022/10/28 08:40:36;;;;;;;18.85;11.13;;;;;;;;;;5022727;28;20029;-78
2022/10/28 08:43:13;;;;;;;15.32;10.50;;;;;;;;;;5056069;28;20524;-78
2022/10/28 08:45:53;;;;;;;20.35;10.68;;;;;;;;;;5022471;28;20087;-77
2022/10/28 08:48:32;;;;;;;18.55;10.75;;;;;;;;;;5056371;28;20028;-76
2022/10/28 08:51:28;;;;;;;16.55;12.30;;;;;;;;;;5022561;28;20039;-76
2022/10/28 08:54:03;;;;;;;22.90;13.00;;;;;;;;;;5056254;28;20536;-77
2022/10/28 08:56:46;;;;;;;18.02;11.30;;;;;;;;;;5056112;28;20067;-77
2022/10/28 08:59:20;;;;;;;20.02;11.55;;;;;;;;;;5055994;28;20108;-79
2022/10/28 09:01:53;;;;;;;20.00;10.82;;;;;;;;;;5038968;28;20043;-78
2022/10/28 09:04:42;;;;;;;19.80;12.45;;;;;;;;;;5038797;28;20480;-77
2022/10/28 09:07:25;;;;;;;18.10;11.57;;;;;;;;;;5056325;28;20033;-77
2022/10/28 09:09:52;;;;;;;19.00;11.25;;;;;;;;;;5038290;28;20036;-77
2022/10/28 09:12:22;;;;;;;16.58;10.48;;;;;;;;;;5056551;28;20029;-76
2022/10/28 09:15:20;;;;;;;20.38;12.20;;;;;;;;;;5038093;28;20025;-77
2022/10/28 09:17:55;;;;;;;18.13;10.70;;;;;;;;;;5038053;28;20041;-77
2022/10/28 09:20:35;;;;;;;19.13;10.98;;;;;;;;;;5037781;28;20028;-77
2022/10/28 09:23:21;;;;;;;17.63;10.80;;;;;;;;;;5038383;28;20045;-76
2022/10/28 09:26:26;;;;;;;15.02;11.00;;;;;;;;;;5037706;28;20021;-78
2022/10/28 09:29:16;;;;;;;18.48;11.70;;;;;;;;;;4976879;28;20128;-75
2022/10/28 09:31:46;;;;;;;21.33;13.02;;;;;;;;;;5037031;28;20040;-78
2022/10/28 09:34:42;;;;;;;17.23;10.93;;;;;;;;;;5037634;28;20028;-77
2022/10/28 09:37:43;;;;;;;20.58;12.38;;;;;;;;;;5037239;28;20029;-78
2022/10/28 09:40:23;;;;;;;18.63;11.10;;;;;;;;;;5027106;28;20033;-77
2022/10/28 09:43:25;;;;;;;17.85;11.30;;;;;;;;;;5038419;28;20017;-78
2022/10/28 09:45:54;;;;;;;23.92;12.48;;;;;;;;;;5038130;28;20534;-75
2022/10/28 09:48:36;;;;;;;23.27;11.88;;;;;;;;;;5038335;28;20032;-75
2022/10/28 09:51:02;;;;;;;22.98;13.45;;;;;;;;;;5038424;28;20028;-77
2022/10/28 09:53:47;;;;;;;18.35;11.00;;;;;;;;;;5037710;28;20115;-75
2022/10/28 09:56:13;;;;;;;19.55;11.25;;;;;;;;;;5055538;28;20556;-77
2022/10/28 09:58:43;;;;;;;17.25;9.85;;;;;;;;;;5055417;28;20574;-76
2022/10/28 10:01:09;;;;;;;19.13;11.05;;;;;;;;;;5055805;28;20029;-78
2022/10/28 10:03:40;;;;;;;16.35;10.07;;;;;;;;;;5038292;28;20021;-77
2022/10/28 10:06:26;;;;;;;14.73;9.13;;;;;;;;;;5038439;28;20028;-77
2022/10/28 10:08:54;;;;;;;12.50;9.25;;;;;;;;;;5038067;28;20481;-77
2022/10/28 10:11:37;;;;;;;15.25;7.80;;;;;;;;;;5036838;28;20396;-77
2022/10/28 10:14:10;;;;;;;18.08;9.30;;;;;;;;;;5054732;28;20341;-77
2022/10/28 10:17:02;;;;;;;16.17;10.00;;;;;;;;;;5036668;28;20033;-76
2022/10/28 10:19:28;;;;;;;10.98;7.63;;;;;;;;;;5037137;28;20017;-77
2022/10/28 10:21:55;;;;;;;11.77;8.35;;;;;;;;;;5036279;28;20052;-78
2022/10/28 10:24:32;;;;;;;12.00;8.15;;;;;;;;;;5054500;28;20056;-77
2022/10/28 10:27:18;;;;;;;15.55;7.85;;;;;;;;;;5036542;28;20106;-76
2022/10/28 10:29:49;;;;;;;15.65;8.38;;;;;;;;;;5036643;28;20111;-76
2022/10/28 10:32:25;;;;;;;11.00;7.35;;;;;;;;;;5037216;28;20428;-78
2022/10/28 10:35:01;;;;;;;11.35;7.13;;;;;;;;;;5039952;28;20025;-79
2022/10/28 10:37:28;;;;;;;13.40;9.48;;;;;;;;;;5039887;28;20037;-78
2022/10/28 10:40:25;;;;;;;15.95;7.60;;;;;;;;;;5058263;28;20029;-81
2022/10/28 10:42:52;;;;;;;14.75;8.05;;;;;;;;;;5057953;28;20029;-80
2022/10/28 10:45:26;;;;;;;11.02;7.85;;;;;;;;;;5058313;28;20036;-80
2022/10/28 10:48:13;;;;;;;14.38;8.27;;;;;;;;;;5039907;28;20047;-80
2022/10/28 10:50:40;;;;;;;10.80;7.15;;;;;;;;;;5040170;28;20491;-79
2022/10/28 10:53:15;;;;;;;9.63;7.53;;;;;;;;;;5040808;28;20120;-80
2022/10/28 10:55:41;;;;;;;13.95;7.53;;;;;;;;;;5057334;28;20038;-80
2022/10/28 10:58:16;;;;;;;11.50;7.40;;;;;;;;;;5040040;28;20066;-79
2022/10/28 11:00:48;;;;;;;9.85;6.65;;;;;;;;;;5039603;28;20021;-80
2022/10/28 11:03:30;;;;;;;15.30;7.07;;;;;;;;;;5058860;28;20043;-80
2022/10/28 11:05:59;;;;;;;11.60;6.82;;;;;;;;;;5038616;28;20033;-80
2022/10/28 11:08:37;;;;;;;11.50;6.90;;;;;;;;;;5038810;28;20215;-80
2022/10/28 11:11:07;;;;;;;15.50;8.57;;;;;;;;;;5038582;28;20033;-79
2022/10/28 11:13:34;;;;;;;12.07;6.88;;;;;;;;;;5059496;28;20040;-80
2022/10/28 11:16:21;;;;;;;11.63;6.57;;;;;;;;;;5056710;28;20059;-80
2022/10/28 11:18:49;;;;;;;13.05;7.28;;;;;;;;;;5057212;28;20041;-79
2022/10/28 11:21:46;;;;;;;11.32;6.93;;;;;;;;;;5064192;28;20625;-78
2022/10/28 11:24:30;;;;;;;10.43;6.88;;;;;;;;;;5038799;28;20032;-79
2022/10/28 11:27:22;;;;;;;34.72;13.48;;;;;;;;;;5055885;28;20388;-80
2022/10/28 11:29:48;;;;;;;12.68;7.10;;;;;;;;;;5056052;28;20027;-80
2022/10/28 11:32:34;;;;;;;10.43;6.13;;;;;;;;;;5038808;28;20033;-79
2022/10/28 11:35:14;;;;;;;9.98;7.05;;;;;;;;;;5056841;28;20036;-80
2022/10/28 11:38:11;;;;;;;10.65;6.05;;;;;;;;;;5039502;28;20090;-79
2022/10/28 11:40:50;;;;;;;7.93;6.07;;;;;;;;;;5056539;28;20504;-79
2022/10/28 11:43:45;;;;;;;11.05;5.97;;;;;;;;;;5038383;28;20108;-79
2022/10/28 11:46:42;;;;;;;9.75;6.63;;;;;;;;;;5041187;28;20096;-80
2022/10/28 11:49:26;;;;;;;9.98;5.63;;;;;;;;;;5055724;28;20081;-79
2022/10/28 11:52:10;;;;;;;30.83;17.30;;;;;;;;;;5056052;28;20049;-80
2022/10/28 11:54:39;;;;;;;10.10;6.10;;;;;;;;;;5037721;28;20033;-80
2022/10/28 11:57:15;;;;;;;10.32;7.05;;;;;;;;;;5038327;28;20108;-80
2022/10/28 12:00:02;;;;;;;11.75;6.68;;;;;;;;;;5038589;28;20029;-80
2022/10/28 12:02:57;;;;;;;11.88;6.38;;;;;;;;;;5055490;28;20037;-81
2022/10/28 12:05:50;;;;;;;18.45;7.60;;;;;;;;;;5054846;28;20094;-81
2022/10/28 12:08:45;;;;;;;12.95;8.23;;;;;;;;;;5023105;28;20396;-80
2022/10/28 12:11:34;;;;;;;11.20;6.50;;;;;;;;;;5020797;28;20033;-79
2022/10/28 12:14:09;;;;;;;16.40;7.47;;;;;;;;;;5037980;28;20054;-81
2022/10/28 12:16:55;;;;;;;15.07;7.72;;;;;;;;;;5036804;28;20049;-81
2022/10/28 12:19:41;;;;;;;12.43;7.25;;;;;;;;;;5039028;28;20029;-80
2022/10/28 12:22:22;;;;;;;16.40;7.32;;;;;;;;;;5056050;28;20056;-80
2022/10/28 12:24:50;;;;;;;9.80;7.18;;;;;;;;;;5054700;28;20021;-81
2022/10/28 12:27:29;;;;;;;9.32;6.63;;;;;;;;;;5035300;28;20033;-81
2022/10/28 12:30:06;;;;;;;14.82;9.27;;;;;;;;;;5036760;28;20107;-81
2022/10/28 12:32:36;;;;;;;12.20;6.70;;;;;;;;;;5034363;28;20543;-81
2022/10/28 12:35:16;;;;;;;13.53;7.30;;;;;;;;;;5017634;28;20441;-79
2022/10/28 12:37:47;;;;;;;13.07;7.32;;;;;;;;;;5017326;28;20026;-79
2022/10/28 12:40:20;;;;;;;14.48;6.47;;;;;;;;;;5035917;28;20375;-79
2022/10/28 12:42:52;;;;;;;10.93;7.03;;;;;;;;;;5017501;28;20041;-81
2022/10/28 12:45:20;;;;;;;9.52;6.07;;;;;;;;;;5018044;28;20025;-79
2022/10/28 12:48:24;;;;;;;12.40;8.40;;;;;;;;;;5034444;28;20537;-79
2022/10/28 12:51:15;;;;;;;11.93;6.95;;;;;;;;;;5018169;28;20028;-80
2022/10/28 12:54:05;;;;;;;7.47;6.03;;;;;;;;;;5013445;28;20486;-80
2022/10/28 12:56:35;;;;;;;18.10;8.55;;;;;;;;;;5035530;28;20124;-82
2022/10/28 12:59:10;;;;;;;14.10;8.15;;;;;;;;;;5036669;28;20083;-80
2022/10/28 13:01:36;;;;;;;15.77;7.30;;;;;;;;;;5019960;28;20041;-82
2022/10/28 13:04:02;;;;;;;16.40;9.80;;;;;;;;;;5038572;28;20029;-80
2022/10/28 13:07:03;;;;;;;14.23;7.82;;;;;;;;;;5020579;28;20064;-79
2022/10/28 13:10:16;;;;;;;18.87;11.77;;;;;;;;;;5016463;28;20057;-80
2022/10/28 13:12:57;;;;;;;9.88;5.82;;;;;;;;;;5032822;28;20116;-81
2022/10/28 13:16:08;;;;;;;11.48;7.78;;;;;;;;;;5027052;28;20416;-82
2022/10/28 13:19:01;;;;;;;14.32;7.65;;;;;;;;;;5024548;28;20022;-79
2022/10/28 13:21:43;;;;;;;13.85;7.40;;;;;;;;;;5039245;28;20557;-82
2022/10/28 13:24:18;;;;;;;20.77;13.63;;;;;;;;;;5021580;28;20052;-80
2022/10/28 13:26:46;;;;;;;14.40;6.88;;;;;;;;;;5022269;28;20455;-78
2022/10/28 13:29:22;;;;;;;12.48;6.05;;;;;;;;;;5021973;28;20021;-80
2022/10/28 13:31:49;;;;;;;9.40;5.18;;;;;;;;;;5022091;28;20036;-81
2022/10/28 13:34:18;;;;;;;19.45;8.98;;;;;;;;;;5022236;28;20499;-80
2022/10/28 13:36:53;;;;;;;12.65;8.23;;;;;;;;;;5020832;28;20028;-79
2022/10/28 13:39:24;;;;;;;10.20;5.97;;;;;;;;;;5038147;28;20037;-79
2022/10/28 13:42:13;;;;;;;14.98;4.93;;;;;;;;;;5021655;28;20033;-81
2022/10/28 13:44:51;;;;;;;11.07;6.13;;;;;;;;;;5020970;28;20094;-80
2022/10/28 13:47:16;;;;;;;11.07;5.13;;;;;;;;;;5037460;28;20022;-80
2022/10/28 13:50:07;;;;;;;8.20;5.53;;;;;;;;;;5037800;28;20098;-80
2022/10/28 13:52:32;;;;;;;12.13;5.55;;;;;;;;;;5037451;28;20048;-80
2022/10/28 13:55:10;;;;;;;16.23;11.30;;;;;;;;;;5020656;28;20037;-79
2022/10/28 13:57:37;;;;;;;19.98;7.95;;;;;;;;;;5038705;28;20056;-81
2022/10/28 14:00:26;;;;;;;19.90;12.60;;;;;;;;;;5020907;28;20056;-80
2022/10/28 14:02:53;;;;;;;16.98;7.07;;;;;;;;;;5005080;28;20115;-79
2022/10/28 14:05:24;;;;;;;14.43;8.80;;;;;;;;;;5020678;28;20471;-80
2022/10/28 14:07:57;;;;;;;16.42;7.00;;;;;;;;;;5019211;28;20543;-80
2022/10/28 14:10:40;;;;;;;12.98;5.80;;;;;;;;;;5045000;28;20029;-80
2022/10/28 14:13:15;;;;;;;11.45;6.60;;;;;;;;;;5008024;28;20048;-81
2022/10/28 14:15:42;;;;;;;16.85;9.13;;;;;;;;;;5037544;28;20041;-80
2022/10/28 14:18:13;;;;;;;16.77;10.65;;;;;;;;;;5040164;28;20056;-80
2022/10/28 14:20:38;;;;;;;;;;;;;;;;;;5038247;28;20083;-79
2022/10/28 14:23:19;;;;;;;16.95;6.60;;;;;;;;;;5019388;28;19909;-81
2022/10/28 14:25:54;;;;;;;14.95;6.75;;;;;;;;;;5030287;28;20017;-80
2022/10/28 14:28:29;;;;;;;26.85;6.93;;;;;;;;;;5040095;28;20123;-79
2022/10/28 14:31:19;;;;;;;11.48;8.48;;;;;;;;;;5040150;28;20345;-79
2022/10/28 14:33:54;;;;;;;19.35;8.15;;;;;;;;;;5039489;28;20036;-81
2022/10/28 14:36:19;;;;;;;13.60;6.50;;;;;;;;;;5038477;28;20025;-80
2022/10/28 14:39:23;;;;;;;12.82;7.88;;;;;;;;;;5038154;28;20036;-81
2022/10/28 14:42:03;;;;;;;22.08;6.63;;;;;;;;;;5038106;28;20025;-82
2022/10/28 14:45:08;;;;;;;14.47;7.40;;;;;;;;;;5055507;28;20028;-81
2022/10/28 14:48:03;;;;;;;11.52;7.65;;;;;;;;;;5056336;28;20024;-80
2022/10/28 14:50:42;;;;;;;23.90;9.43;;;;;;;;;;5038393;28;20028;-81
2022/10/28 14:53:17;;;;;;;19.45;7.88;;;;;;;;;;5038032;28;20071;-80
2022/10/28 14:55:45;;;;;;;19.38;7.95;;;;;;;;;;5038542;28;20040;-81